PST,Max TemperatureF,Mean TemperatureF,Min TemperatureF,Max Dew PointF,MeanDew PointF,Min DewpointF,Max Humidity, Mean Humidity, Min Humidity, Max Sea Level PressureIn, Mean Sea Level PressureIn, Min Sea Level PressureIn, Max VisibilityMiles, Mean VisibilityMiles, Min VisibilityMiles, Max Wind SpeedMPH, Mean Wind SpeedMPH, Max Gust SpeedMPH,PrecipitationIn, CloudCover, Events, WindDirDegrees
2012-12-1,46,42,37,46,41,32,100,92,57,29.73,29.62,29.54,10,10,8,24,12,37,0.03,3,Rain,182
2012-12-2,44,40,37,45,40,37,100,100,80,29.83,29.44,29.17,10,9,4,32,13,36,0.30,5,Rain-Snow,180
2012-12-3,47,42,37,43,40,37,100,97,74,30.08,29.97,29.86,10,10,10,28,15,36,0.00,4,Snow,183
2012-12-4,48,42,37,48,43,32,100,98,66,29.88,29.77,29.69,10,10,6,23,13,29,0.32,8,Rain,171
2012-12-5,46,39,32,47,37,28,100,90,61,30.20,29.93,29.69,10,10,10,26,18,33,0.01,4,Rain-Snow,226
2012-12-6,34,32,30,34,33,30,100,100,100,30.16,30.00,29.91,10,10,6,16,12,25,0.00,6,Rain-Snow,203
2012-12-7,39,33,27,39,32,27,100,100,100,30.06,29.89,29.73,10,9,1,28,11,37,0.04,6,Rain-Snow,210
2012-12-8,34,28,20,27,23,17,100,90,51,30.35,30.16,29.92,10,10,10,10,7,,0.00,2,,278
2012-12-9,29,23,17,29,26,18,100,100,93,30.45,30.27,30.14,10,9,3,10,4,,0.00,7,Snow,162
2012-12-10,32,29,26,33,29,27,100,100,100,30.29,30.14,29.97,10,7,0,12,4,,0.00,8,Fog-Rain-Snow,205
2012-12-11,37,34,32,37,34,32,100,100,100,30.01,29.68,29.53,10,9,2,15,8,,0.03,7,Rain-Snow,188
2012-12-12,32,30,29,32,32,30,100,100,100,30.00,29.72,29.54,10,4,0,12,3,,0.15,8,Fog-Rain-Snow,215
2012-12-13,32,24,17,32,26,17,100,100,100,30.05,29.90,29.80,10,5,0,8,3,,0.00,5,Fog-Rain-Snow,194
2012-12-14,29,22,15,29,25,16,100,100,100,29.96,29.80,29.73,10,5,0,6,3,,0.02,7,Fog-Rain-Snow,182
2012-12-15,32,29,26,32,29,27,100,100,100,29.96,29.77,29.55,10,8,1,10,4,,0.06,8,Snow,155
2012-12-16,32,29,26,33,30,26,100,100,100,29.80,29.54,29.18,10,6,0,25,14,32,0.04,8,Fog-Snow,174
2012-12-17,37,30,24,38,34,25,100,100,89,29.82,29.32,29.11,10,10,8,39,21,50,1.19,7,Rain-Snow,201
2012-12-18,32,26,21,32,26,21,100,100,93,30.02,29.86,29.74,10,10,10,18,11,25,0.00,5,Snow,199
2012-12-19,32,26,21,32,26,21,100,99,80,30.07,29.93,29.85,10,5,0,23,12,31,0.06,8,Fog-Rain-Snow,162
2012-12-20,39,34,30,36,30,23,100,86,50,29.90,29.81,29.71,10,8,2,26,18,32,0.01,8,Rain-Snow,160
2012-12-21,36,34,32,36,33,32,100,100,100,29.94,29.85,29.76,10,7,1,10,6,,0.03,7,Rain-Snow,84
2012-12-22,39,34,27,39,34,28,100,100,100,29.83,29.67,29.57,10,10,7,18,10,26,0.10,6,Rain-Snow,132
2012-12-23,35,31,27,36,32,27,100,100,99,29.92,29.71,29.57,10,6,1,14,9,,0.09,5,Rain-Snow,87
2012-12-24,32,28,23,32,28,23,100,100,100,30.20,29.94,29.60,10,3,0,17,7,23,0.04,7,Fog-Rain-Snow,202
2012-12-25,30,27,24,30,28,25,100,100,99,30.20,29.98,29.77,10,2,0,10,4,,0.01,8,Fog-Rain-Snow,98
2012-12-26,30,28,26,30,28,27,100,100,99,29.96,29.82,29.74,10,9,4,10,5,,0.01,8,Rain-Snow,34
2012-12-27,30,28,26,30,28,27,100,100,100,30.18,30.02,29.89,10,7,1,8,4,,0.01,8,Rain-Snow,235
2012-12-28,30,26,22,30,26,22,100,100,100,30.25,30.15,30.09,10,7,1,8,4,,0.00,7,Rain-Snow,97
2012-12-29,23,18,14,24,20,14,100,100,99,30.25,30.14,30.08,10,2,0,7,2,,0.01,6,Fog-Snow,159
2012-12-30,23,20,18,24,22,19,100,100,99,30.37,30.23,30.13,10,6,0,10,2,,0.00,8,Fog-Rain-Snow,230
2012-12-31,24,17,10,25,21,10,100,100,99,30.51,30.32,30.25,10,9,2,7,3,,0.00,6,Snow,296